Time;durP1;ratioP1;P1;durP2;ratioP2;P2;SDS_P1;SDS_P2;PMS_P1;PMS_P2;Temp;Humidity;BMP_temperature;BMP_pressure;BME280_temperature;BME280_humidity;BME280_pressure;Samples;Min_cycle;Max_cycle;Signal;HPM_P1;HPM_P2
2023/01/30 00:00:11;;;;;;;;;;;;;;;;;;5067643;28;20368;-57
2023/01/30 00:02:37;;;;;;;;;;;;;;;;;;5047080;28;19952;-59
2023/01/30 00:05:03;;;;;;;;;;;;;;;;;;5037491;28;20294;-59
2023/01/30 00:07:29;;;;;;;;;;;;;;;;;;5038623;28;19928;-59
2023/01/30 00:09:55;;;;;;;;;;;;;;;;;;5052305;28;19919;-59
2023/01/30 00:12:21;;;;;;;;;;;;;;;;;;5051076;28;19913;-59
2023/01/30 00:14:47;;;;;;;;;;;;;;;;;;5048365;28;20008;-59
2023/01/30 00:17:13;;;;;;;;;;;;;;;;;;5040361;28;19917;-59
2023/01/30 00:19:39;;;;;;;;;;;;;;;;;;5051772;28;20012;-59
2023/01/30 00:22:04;;;;;;;;;;;;;;;;;;5037718;28;19921;-59
2023/01/30 00:24:30;;;;;;;;;;;;;;;;;;5046799;28;19917;-59
2023/01/30 00:26:56;;;;;;;;;;;;;;;;;;5049724;28;19968;-59
2023/01/30 00:29:22;;;;;;;;;;;;;;;;;;5038307;28;20315;-59
2023/01/30 00:31:48;;;;;;;;;;;;;;;;;;5040930;28;20375;-59
2023/01/30 00:34:14;;;;;;;;;;;;;;;;;;5044772;28;19928;-59
2023/01/30 00:36:40;;;;;;;;;;;;;;;;;;5048204;28;20591;-59
2023/01/30 00:39:06;;;;;;;;;;;;;;;;;;5035918;28;19948;-59
2023/01/30 00:47:04;;;;;;;;;;;;;;;;;;5040687;28;19920;-58
2023/01/30 00:49:30;;;;;;;;;;;;;;;;;;5037857;28;19913;-59
2023/01/30 00:51:56;;;;;;;;;;;;;;;;;;5040277;28;19963;-59
2023/01/30 00:54:22;;;;;;;;;;;;;;;;;;5043404;28;19917;-59
2023/01/30 00:56:48;;;;;;;;;;;;;;;;;;5041566;28;20391;-59
2023/01/30 00:59:14;;;;;;;;;;;;;;;;;;5052440;28;19924;-59
2023/01/30 01:01:39;;;;;;;;;;;;;;;;;;5048015;28;20034;-59
2023/01/30 01:04:09;;;;;;;;;;;;;;;;;;5039498;28;20007;-59
2023/01/30 01:06:35;;;;;;;;;;;;;;;;;;5039264;28;19925;-59
2023/01/30 01:09:01;;;;;;;;;;;;;;;;;;5046391;28;19913;-58
2023/01/30 01:11:27;;;;;;;;;;;;;;;;;;5053598;28;19917;-59
2023/01/30 01:13:52;;;;;;;;;;;;;;;;;;5057733;28;19959;-59
2023/01/30 01:16:18;;;;;;;;;;;;;;;;;;5035309;28;20391;-59
2023/01/30 01:18:44;;;;;;;;;;;;;;;;;;5048028;28;20356;-59
2023/01/30 01:21:10;;;;;;;;;;;;;;;;;;5036503;28;19919;-59
2023/01/30 01:23:36;;;;;;;;;;;;;;;;;;5039716;28;19952;-59
2023/01/30 01:26:02;;;;;;;;;;;;;;;;;;5052623;28;19935;-59
2023/01/30 01:28:28;;;;;;;;;;;;;;;;;;5047950;28;19956;-59
2023/01/30 01:30:54;;;;;;;;;;;;;;;;;;5040417;28;20004;-59
2023/01/30 01:33:20;;;;;;;;;;;;;;;;;;5043686;28;19917;-59
2023/01/30 01:35:46;;;;;;;;;;;;;;;;;;5038530;28;20257;-59
2023/01/30 01:38:12;;;;;;;;;;;;;;;;;;5042084;28;19920;-59
2023/01/30 01:43:22;;;;;;;;;;;;;;;;;;5052156;28;19923;-59
2023/01/30 01:45:48;;;;;;;;;;;;;;;;;;5049093;28;20012;-59
2023/01/30 01:48:14;;;;;;;;;;;;;;;;;;5040972;28;19921;-59
2023/01/30 01:50:40;;;;;;;;;;;;;;;;;;5051698;28;20012;-59
2023/01/30 01:53:06;;;;;;;;;;;;;;;;;;5042269;28;19916;-59
2023/01/30 01:55:32;;;;;;;;;;;;;;;;;;5050474;28;19931;-59
2023/01/30 01:57:58;;;;;;;;;;;;;;;;;;5048017;28;19959;-58
2023/01/30 02:00:24;;;;;;;;;;;;;;;;;;5051941;28;20585;-59
2023/01/30 02:02:50;;;;;;;;;;;;;;;;;;5045206;28;19913;-59
2023/01/30 02:05:16;;;;;;;;;;;;;;;;;;5037002;28;19912;-59
2023/01/30 02:07:41;;;;;;;;;;;;;;;;;;5042496;28;19920;-59
2023/01/30 02:10:07;;;;;;;;;;;;;;;;;;5048627;28;19948;-59
2023/01/30 02:12:33;;;;;;;;;;;;;;;;;;5038705;28;20575;-59
2023/01/30 02:14:59;;;;;;;;;;;;;;;;;;5035487;28;19921;-59
2023/01/30 02:17:25;;;;;;;;;;;;;;;;;;5050134;28;19921;-59
2023/01/30 02:19:51;;;;;;;;;;;;;;;;;;5035346;28;19990;-59
2023/01/30 02:22:17;;;;;;;;;;;;;;;;;;5041575;28;19967;-59
2023/01/30 02:24:43;;;;;;;;;;;;;;;;;;5044424;28;19917;-59
2023/01/30 02:27:09;;;;;;;;;;;;;;;;;;5044195;28;19920;-59
2023/01/30 02:29:34;;;;;;;;;;;;;;;;;;5058956;28;19917;-59
2023/01/30 02:32:00;;;;;;;;;;;;;;;;;;5053792;28;20473;-59
2023/01/30 02:34:26;;;;;;;;;;;;;;;;;;5066949;28;19948;-59
2023/01/30 02:36:52;;;;;;;;;;;;;;;;;;5045871;28;20280;-59
2023/01/30 02:39:18;;;;;;;;;;;;;;;;;;5036969;28;19968;-59
2023/01/30 02:41:44;;;;;;;;;;;;;;;;;;5050912;28;19913;-59
2023/01/30 02:44:10;;;;;;;;;;;;;;;;;;5052561;28;20365;-59
2023/01/30 02:46:36;;;;;;;;;;;;;;;;;;5046951;28;19924;-59
2023/01/30 02:49:01;;;;;;;;;;;;;;;;;;5043783;28;19956;-59
2023/01/30 02:51:27;;;;;;;;;;;;;;;;;;5048699;28;19916;-59
2023/01/30 02:53:53;;;;;;;;;;;;;;;;;;5050812;28;19940;-59
2023/01/30 02:56:19;;;;;;;;;;;;;;;;;;5056101;28;20288;-59
2023/01/30 02:58:45;;;;;;;;;;;;;;;;;;5037448;28;19967;-58
2023/01/30 03:01:11;;;;;;;;;;;;;;;;;;5044370;28;19960;-59
2023/01/30 03:03:37;;;;;;;;;;;;;;;;;;5051486;28;19913;-59
2023/01/30 03:06:03;;;;;;;;;;;;;;;;;;5047926;28;19919;-59
2023/01/30 03:08:29;;;;;;;;;;;;;;;;;;5044048;28;19921;-59
2023/01/30 03:10:54;;;;;;;;;;;;;;;;;;5049518;28;20050;-59
2023/01/30 03:13:20;;;;;;;;;;;;;;;;;;5039606;28;20402;-59
2023/01/30 03:15:46;;;;;;;;;;;;;;;;;;5039063;28;20043;-59
2023/01/30 03:18:12;;;;;;;;;;;;;;;;;;5046392;28;19917;-58
2023/01/30 03:20:38;;;;;;;;;;;;;;;;;;5037876;28;19959;-59
2023/01/30 03:23:04;;;;;;;;;;;;;;;;;;5036995;28;19940;-59
2023/01/30 03:25:31;;;;;;;;;;;;;;;;;;5041893;28;20040;-59
2023/01/30 03:27:56;;;;;;;;;;;;;;;;;;5049205;28;20413;-59
2023/01/30 03:30:22;;;;;;;;;;;;;;;;;;5042599;28;20004;-59
2023/01/30 03:32:48;;;;;;;;;;;;;;;;;;5048277;28;20028;-59
2023/01/30 03:35:16;;;;;;;;;;;;;;;;;;5048404;28;19972;-58
2023/01/30 03:37:42;;;;;;;;;;;;;;;;;;5045890;28;19913;-59
2023/01/30 03:40:08;;;;;;;;;;;;;;;;;;5045206;28;20291;-59
2023/01/30 03:42:34;;;;;;;;;;;;;;;;;;5047514;28;19913;-59
2023/01/30 03:45:00;;;;;;;;;;;;;;;;;;5047351;28;20027;-59
2023/01/30 03:47:26;;;;;;;;;;;;;;;;;;5051310;28;19924;-59
2023/01/30 03:49:52;;;;;;;;;;;;;;;;;;5052774;28;19958;-59
2023/01/30 03:52:18;;;;;;;;;;;;;;;;;;5042218;28;20007;-59
2023/01/30 03:54:44;;;;;;;;;;;;;;;;;;5050356;28;19973;-59
2023/01/30 03:57:09;;;;;;;;;;;;;;;;;;5045815;28;19913;-58
2023/01/30 03:59:35;;;;;;;;;;;;;;;;;;5049422;28;19948;-59
2023/01/30 04:02:01;;;;;;;;;;;;;;;;;;5045981;28;19919;-59
2023/01/30 04:04:27;;;;;;;;;;;;;;;;;;5046293;28;20677;-59
2023/01/30 04:06:53;;;;;;;;;;;;;;;;;;5068814;28;19989;-59
2023/01/30 04:09:19;;;;;;;;;;;;;;;;;;5047305;28;19917;-59
2023/01/30 04:11:45;;;;;;;;;;;;;;;;;;5050762;28;19959;-58
2023/01/30 04:14:11;;;;;;;;;;;;;;;;;;5036896;28;19921;-59
2023/01/30 04:16:37;;;;;;;;;;;;;;;;;;5043400;28;19917;-59
2023/01/30 04:19:02;;;;;;;;;;;;;;;;;;5051950;28;20387;-59
2023/01/30 04:21:28;;;;;;;;;;;;;;;;;;5054535;28;19959;-59
2023/01/30 04:23:54;;;;;;;;;;;;;;;;;;5068160;28;20011;-59
2023/01/30 04:26:20;;;;;;;;;;;;;;;;;;5046395;28;19913;-59
2023/01/30 04:28:46;;;;;;;;;;;;;;;;;;5046997;28;19917;-59
2023/01/30 04:31:12;;;;;;;;;;;;;;;;;;5035226;28;19917;-59
2023/01/30 04:33:38;;;;;;;;;;;;;;;;;;5049724;28;20316;-58
2023/01/30 04:36:04;;;;;;;;;;;;;;;;;;5044955;28;19924;-59
2023/01/30 04:38:30;;;;;;;;;;;;;;;;;;5034148;28;19956;-59
2023/01/30 04:40:56;;;;;;;;;;;;;;;;;;5038785;28;19967;-59
2023/01/30 04:43:22;;;;;;;;;;;;;;;;;;5048797;28;19959;-59
2023/01/30 04:45:48;;;;;;;;;;;;;;;;;;5041294;28;19943;-59
2023/01/30 04:48:14;;;;;;;;;;;;;;;;;;5042530;28;20340;-59
2023/01/30 04:50:40;;;;;;;;;;;;;;;;;;5041500;28;19920;-59
2023/01/30 04:53:06;;;;;;;;;;;;;;;;;;5046998;28;20332;-59
2023/01/30 04:55:32;;;;;;;;;;;;;;;;;;5044499;28;19960;-59
2023/01/30 04:57:57;;;;;;;;;;;;;;;;;;5047173;28;19917;-58
2023/01/30 05:00:23;;;;;;;;;;;;;;;;;;5041918;28;19946;-59
2023/01/30 05:02:49;;;;;;;;;;;;;;;;;;5034113;28;19963;-59
2023/01/30 05:05:15;;;;;;;;;;;;;;;;;;5037261;28;20368;-59
2023/01/30 05:07:41;;;;;;;;;;;;;;;;;;5044292;28;20388;-59
2023/01/30 05:10:07;;;;;;;;;;;;;;;;;;5049114;28;20344;-59
2023/01/30 05:12:33;;;;;;;;;;;;;;;;;;5055225;28;20355;-59
2023/01/30 05:15:00;;;;;;;;;;;;;;;;;;5051300;28;19924;-58
2023/01/30 05:17:26;;;;;;;;;;;;;;;;;;5052632;28;20391;-59
2023/01/30 05:19:51;;;;;;;;;;;;;;;;;;5040839;28;19952;-59
2023/01/30 05:22:17;;;;;;;;;;;;;;;;;;5050135;28;19985;-59
2023/01/30 05:24:43;;;;;;;;;;;;;;;;;;5041248;28;19970;-58
2023/01/30 05:27:09;;;;;;;;;;;;;;;;;;5047275;28;19952;-58
2023/01/30 05:29:35;;;;;;;;;;;;;;;;;;5043169;28;19935;-58
2023/01/30 05:32:01;;;;;;;;;;;;;;;;;;5049125;28;19913;-58
2023/01/30 05:34:27;;;;;;;;;;;;;;;;;;5049789;28;20379;-59
2023/01/30 05:36:53;;;;;;;;;;;;;;;;;;5046847;28;19967;-59
2023/01/30 05:39:19;;;;;;;;;;;;;;;;;;5048022;28;19938;-58
2023/01/30 05:41:44;;;;;;;;;;;;;;;;;;5049115;28;19913;-59
2023/01/30 05:44:10;;;;;;;;;;;;;;;;;;5052090;28;20006;-58
2023/01/30 05:46:36;;;;;;;;;;;;;;;;;;5050987;28;20360;-58
2023/01/30 05:49:06;;;;;;;;;;;;;;;;;;5046534;28;19956;-58
2023/01/30 05:51:32;;;;;;;;;;;;;;;;;;5052830;28;19917;-59
2023/01/30 05:53:58;;;;;;;;;;;;;;;;;;5045365;28;20438;-58
2023/01/30 05:56:24;;;;;;;;;;;;;;;;;;5052377;28;19913;-58
2023/01/30 05:58:49;;;;;;;;;;;;;;;;;;5041292;28;20398;-59
2023/01/30 06:01:15;;;;;;;;;;;;;;;;;;5049346;28;20085;-58
2023/01/30 06:03:41;;;;;;;;;;;;;;;;;;5052176;28;19957;-58
2023/01/30 06:06:07;;;;;;;;;;;;;;;;;;5049768;28;19954;-58
2023/01/30 06:08:33;;;;;;;;;;;;;;;;;;5045600;28;19912;-58
2023/01/30 06:11:00;;;;;;;;;;;;;;;;;;5047358;28;19968;-58
2023/01/30 06:13:26;;;;;;;;;;;;;;;;;;5053488;28;19913;-59
2023/01/30 06:15:51;;;;;;;;;;;;;;;;;;5056194;28;20013;-57
2023/01/30 06:18:17;;;;;;;;;;;;;;;;;;5051684;28;20388;-58
2023/01/30 06:20:43;;;;;;;;;;;;;;;;;;5043859;28;19919;-59
2023/01/30 06:23:09;;;;;;;;;;;;;;;;;;5052529;28;20469;-59
2023/01/30 06:25:35;;;;;;;;;;;;;;;;;;5044744;28;19960;-59
2023/01/30 06:28:01;;;;;;;;;;;;;;;;;;5049900;28;19923;-58
2023/01/30 06:30:27;;;;;;;;;;;;;;;;;;5040435;28;20462;-59
2023/01/30 06:32:53;;;;;;;;;;;;;;;;;;5048122;28;19949;-58
2023/01/30 06:35:19;;;;;;;;;;;;;;;;;;5047242;28;20002;-58
2023/01/30 06:37:44;;;;;;;;;;;;;;;;;;5046642;28;20407;-59
2023/01/30 06:40:10;;;;;;;;;;;;;;;;;;5046664;28;20011;-59
2023/01/30 06:42:36;;;;;;;;;;;;;;;;;;5050279;28;21785;-58
2023/01/30 06:45:02;;;;;;;;;;;;;;;;;;5044541;28;19956;-59
2023/01/30 06:47:28;;;;;;;;;;;;;;;;;;5046637;28;19927;-59
2023/01/30 06:49:54;;;;;;;;;;;;;;;;;;5050128;28;19917;-59
2023/01/30 06:52:20;;;;;;;;;;;;;;;;;;5038006;28;19956;-59
2023/01/30 06:54:46;;;;;;;;;;;;;;;;;;5046931;28;19975;-59
2023/01/30 06:57:12;;;;;;;;;;;;;;;;;;5051531;28;20442;-59
2023/01/30 06:59:38;;;;;;;;;;;;;;;;;;5045151;28;20399;-58
2023/01/30 07:02:03;;;;;;;;;;;;;;;;;;5043874;28;20008;-59
2023/01/30 07:04:29;;;;;;;;;;;;;;;;;;5048881;28;19944;-59
2023/01/30 07:06:56;;;;;;;;;;;;;;;;;;5048196;28;20441;-58
2023/01/30 07:09:21;;;;;;;;;;;;;;;;;;5049660;28;20036;-59
2023/01/30 07:11:49;;;;;;;;;;;;;;;;;;5043756;28;20011;-59
2023/01/30 07:14:15;;;;;;;;;;;;;;;;;;5047863;28;20351;-58
2023/01/30 07:16:40;;;;;;;;;;;;;;;;;;5038563;28;19949;-58
2023/01/30 07:19:07;;;;;;;;;;;;;;;;;;5043262;28;19939;-59
2023/01/30 07:21:33;;;;;;;;;;;;;;;;;;5042568;28;19924;-58
2023/01/30 07:23:59;;;;;;;;;;;;;;;;;;5041360;28;19916;-59
2023/01/30 07:26:25;;;;;;;;;;;;;;;;;;5051280;28;20340;-59
2023/01/30 07:28:51;;;;;;;;;;;;;;;;;;5047641;28;20342;-59
2023/01/30 07:31:17;;;;;;;;;;;;;;;;;;5040077;28;19953;-58
2023/01/30 07:33:42;;;;;;;;;;;;;;;;;;5042993;28;19927;-58
2023/01/30 07:36:08;;;;;;;;;;;;;;;;;;5044639;28;19925;-58
2023/01/30 07:38:34;;;;;;;;;;;;;;;;;;5042479;28;19967;-59
2023/01/30 07:41:00;;;;;;;;;;;;;;;;;;5043621;28;20364;-59
2023/01/30 07:43:26;;;;;;;;;;;;;;;;;;5044570;28;21557;-58
2023/01/30 07:45:52;;;;;;;;;;;;;;;;;;5046131;28;20388;-58
2023/01/30 07:48:18;;;;;;;;;;;;;;;;;;5041326;28;19927;-57
2023/01/30 07:50:44;;;;;;;;;;;;;;;;;;5046518;28;19963;-58
2023/01/30 07:53:10;;;;;;;;;;;;;;;;;;5041129;28;19948;-58
2023/01/30 07:55:36;;;;;;;;;;;;;;;;;;5043649;28;19944;-58
2023/01/30 07:58:01;;;;;;;;;;;;;;;;;;5041334;28;20329;-58
2023/01/30 08:00:27;;;;;;;;;;;;;;;;;;5040207;28;19946;-59
2023/01/30 08:02:53;;;;;;;;;;;;;;;;;;5044901;28;19964;-59
2023/01/30 08:05:19;;;;;;;;;;;;;;;;;;5041629;28;20043;-59
2023/01/30 08:07:46;;;;;;;;;;;;;;;;;;5041730;28;19946;-58
2023/01/30 08:10:12;;;;;;;;;;;;;;;;;;5042407;28;19917;-59
2023/01/30 08:12:38;;;;;;;;;;;;;;;;;;5049895;28;19960;-59
2023/01/30 08:15:04;;;;;;;;;;;;;;;;;;5049420;28;20371;-59
2023/01/30 08:17:29;;;;;;;;;;;;;;;;;;5039206;28;19959;-58
2023/01/30 08:19:55;;;;;;;;;;;;;;;;;;5042782;28;20328;-57
2023/01/30 08:22:21;;;;;;;;;;;;;;;;;;5044773;28;19917;-59
2023/01/30 08:24:47;;;;;;;;;;;;;;;;;;5046060;28;20023;-59
2023/01/30 08:27:13;;;;;;;;;;;;;;;;;;5039036;28;20469;-58
2023/01/30 08:29:39;;;;;;;;;;;;;;;;;;5046205;28;20386;-58
2023/01/30 08:32:05;;;;;;;;;;;;;;;;;;5040073;28;20007;-59
2023/01/30 08:34:31;;;;;;;;;;;;;;;;;;5041158;28;20009;-58
2023/01/30 08:36:57;;;;;;;;;;;;;;;;;;5041106;28;20003;-57
2023/01/30 08:39:23;;;;;;;;;;;;;;;;;;5049380;28;19948;-59
2023/01/30 08:41:49;;;;;;;;;;;;;;;;;;5047993;28;19996;-59
2023/01/30 08:44:14;;;;;;;;;;;;;;;;;;5047752;28;19913;-59
2023/01/30 08:46:40;;;;;;;;;;;;;;;;;;5045791;28;19991;-59
2023/01/30 08:49:06;;;;;;;;;;;;;;;;;;5052838;28;20449;-58
2023/01/30 08:51:32;;;;;;;;;;;;;;;;;;5046360;28;20623;-58
2023/01/30 08:53:58;;;;;;;;;;;;;;;;;;5050000;28;19938;-58
2023/01/30 08:56:24;;;;;;;;;;;;;;;;;;5045736;28;19921;-59
2023/01/30 08:58:50;;;;;;;;;;;;;;;;;;5053932;28;19914;-58
2023/01/30 09:01:16;;;;;;;;;;;;;;;;;;5047943;28;19959;-59
2023/01/30 09:03:42;;;;;;;;;;;;;;;;;;5046743;28;19913;-59
2023/01/30 09:06:08;;;;;;;;;;;;;;;;;;5060117;28;19913;-59
2023/01/30 09:08:33;;;;;;;;;;;;;;;;;;5059999;28;20551;-58
2023/01/30 09:10:59;;;;;;;;;;;;;;;;;;5054556;28;19995;-59
2023/01/30 09:13:25;;;;;;;;;;;;;;;;;;5054744;28;19908;-56
2023/01/30 09:15:51;;;;;;;;;;;;;;;;;;5048943;28;19971;-59
2023/01/30 09:18:17;;;;;;;;;;;;;;;;;;5054730;28;19913;-59
2023/01/30 09:20:43;;;;;;;;;;;;;;;;;;5050911;28;20438;-59
2023/01/30 09:23:09;;;;;;;;;;;;;;;;;;5049747;28;19912;-59
2023/01/30 09:25:35;;;;;;;;;;;;;;;;;;5054821;28;20282;-58
2023/01/30 09:28:01;;;;;;;;;;;;;;;;;;5054538;28;19912;-57
2023/01/30 09:30:27;;;;;;;;;;;;;;;;;;5052973;28;19940;-58
2023/01/30 09:32:53;;;;;;;;;;;;;;;;;;5051767;28;19917;-59
2023/01/30 09:35:19;;;;;;;;;;;;;;;;;;5053913;28;20346;-58
2023/01/30 09:37:44;;;;;;;;;;;;;;;;;;5046841;28;20414;-58
2023/01/30 09:40:10;;;;;;;;;;;;;;;;;;5044860;28;19913;-59
2023/01/30 09:42:36;;;;;;;;;;;;;;;;;;5047497;28;19913;-59
2023/01/30 09:45:02;;;;;;;;;;;;;;;;;;5052496;28;20114;-59
2023/01/30 09:47:28;;;;;;;;;;;;;;;;;;5054137;28;19960;-58
2023/01/30 09:49:54;;;;;;;;;;;;;;;;;;5052442;28;19952;-59
2023/01/30 09:52:20;;;;;;;;;;;;;;;;;;5042381;28;19913;-59
2023/01/30 09:54:46;;;;;;;;;;;;;;;;;;5046625;28;20383;-59
2023/01/30 09:57:12;;;;;;;;;;;;;;;;;;5048244;28;19919;-59
2023/01/30 09:59:38;;;;;;;;;;;;;;;;;;5052592;28;19913;-59
2023/01/30 10:02:03;;;;;;;;;;;;;;;;;;5053196;28;20445;-60
2023/01/30 10:04:29;;;;;;;;;;;;;;;;;;5053805;28;19909;-57
2023/01/30 10:06:55;;;;;;;;;;;;;;;;;;5051074;28;20334;-57
2023/01/30 10:09:21;;;;;;;;;;;;;;;;;;5051727;28;19952;-59
2023/01/30 10:11:47;;;;;;;;;;;;;;;;;;5046218;28;19944;-56
2023/01/30 10:14:13;;;;;;;;;;;;;;;;;;5048522;28;19958;-57
2023/01/30 10:16:39;;;;;;;;;;;;;;;;;;5047600;28;20957;-57
2023/01/30 10:19:05;;;;;;;;;;;;;;;;;;5050564;28;19985;-58
2023/01/30 10:21:31;;;;;;;;;;;;;;;;;;5041263;28;20011;-59
2023/01/30 10:23:57;;;;;;;;;;;;;;;;;;5052575;28;20375;-59
2023/01/30 10:26:23;;;;;;;;;;;;;;;;;;5053214;28;20010;-59
2023/01/30 10:28:49;;;;;;;;;;;;;;;;;;5052001;28;19924;-59
2023/01/30 10:31:15;;;;;;;;;;;;;;;;;;5051212;28;19960;-59
2023/01/30 10:33:44;;;;;;;;;;;;;;;;;;5053208;28;20333;-59
2023/01/30 10:36:09;;;;;;;;;;;;;;;;;;5052137;28;19923;-59
2023/01/30 10:38:35;;;;;;;;;;;;;;;;;;5052592;28;20003;-60
2023/01/30 10:41:01;;;;;;;;;;;;;;;;;;5052896;28;19915;-59
2023/01/30 10:43:28;;;;;;;;;;;;;;;;;;5050371;28;19952;-58
2023/01/30 10:45:54;;;;;;;;;;;;;;;;;;5052274;28;20338;-58
2023/01/30 10:48:20;;;;;;;;;;;;;;;;;;5046325;28;19919;-59
2023/01/30 10:50:46;;;;;;;;;;;;;;;;;;5066532;28;19917;-59
2023/01/30 10:53:12;;;;;;;;;;;;;;;;;;5049786;28;19960;-59
2023/01/30 10:55:38;;;;;;;;;;;;;;;;;;5046005;28;19923;-58
2023/01/30 10:58:04;;;;;;;;;;;;;;;;;;5053015;28;20416;-59
2023/01/30 11:00:30;;;;;;;;;;;;;;;;;;5051490;28;19909;-57
2023/01/30 11:02:55;;;;;;;;;;;;;;;;;;5046289;28;19913;-58
2023/01/30 11:05:21;;;;;;;;;;;;;;;;;;5049575;28;19952;-57
2023/01/30 11:07:47;;;;;;;;;;;;;;;;;;5050173;28;19920;-57
2023/01/30 11:10:13;;;;;;;;;;;;;;;;;;5052583;28;20394;-58
2023/01/30 11:12:39;;;;;;;;;;;;;;;;;;5052254;28;19921;-57
2023/01/30 11:15:07;;;;;;;;;;;;;;;;;;5046633;28;19924;-58
2023/01/30 11:17:33;;;;;;;;;;;;;;;;;;5046599;28;19971;-57
2023/01/30 11:19:59;;;;;;;;;;;;;;;;;;5049002;28;19940;-57
2023/01/30 11:22:25;;;;;;;;;;;;;;;;;;5051541;28;19976;-58
2023/01/30 11:24:51;;;;;;;;;;;;;;;;;;5048127;28;20337;-57
2023/01/30 11:27:17;;;;;;;;;;;;;;;;;;5052632;28;19909;-57
2023/01/30 11:29:43;;;;;;;;;;;;;;;;;;5054782;28;19959;-57
2023/01/30 11:32:09;;;;;;;;;;;;;;;;;;5049420;28;19920;-57
2023/01/30 11:34:35;;;;;;;;;;;;;;;;;;5058021;28;19956;-57
2023/01/30 11:37:01;;;;;;;;;;;;;;;;;;5052104;28;20007;-57
2023/01/30 11:39:27;;;;;;;;;;;;;;;;;;5051755;28;19913;-57
2023/01/30 11:41:53;;;;;;;;;;;;;;;;;;5051660;28;19924;-58
2023/01/30 11:44:19;;;;;;;;;;;;;;;;;;5048008;28;20020;-58
2023/01/30 11:46:44;;;;;;;;;;;;;;;;;;5045676;28;20045;-57
2023/01/30 11:49:10;;;;;;;;;;;;;;;;;;5051733;28;20287;-58
2023/01/30 11:51:36;;;;;;;;;;;;;;;;;;5050853;28;19913;-59
2023/01/30 11:54:02;;;;;;;;;;;;;;;;;;5048835;28;19945;-59
2023/01/30 11:56:28;;;;;;;;;;;;;;;;;;5057317;28;19955;-58
2023/01/30 11:58:57;;;;;;;;;;;;;;;;;;5049843;28;19977;-58
2023/01/30 12:01:22;;;;;;;;;;;;;;;;;;5037841;28;19978;-57
2023/01/30 12:03:48;;;;;;;;;;;;;;;;;;5046974;28;20014;-60
2023/01/30 12:06:14;;;;;;;;;;;;;;;;;;5046309;28;20342;-57
2023/01/30 12:08:40;;;;;;;;;;;;;;;;;;5042919;28;19966;-57
2023/01/30 12:11:06;;;;;;;;;;;;;;;;;;5045797;28;20024;-57
2023/01/30 12:13:32;;;;;;;;;;;;;;;;;;5046756;28;20410;-57
2023/01/30 12:15:58;;;;;;;;;;;;;;;;;;5041348;28;20021;-58
2023/01/30 12:18:24;;;;;;;;;;;;;;;;;;5052285;28;20136;-58
2023/01/30 12:20:50;;;;;;;;;;;;;;;;;;5040863;28;20919;-58
2023/01/30 12:23:16;;;;;;;;;;;;;;;;;;5049527;28;19916;-57
2023/01/30 12:25:41;;;;;;;;;;;;;;;;;;5048511;28;19931;-58
2023/01/30 12:28:07;;;;;;;;;;;;;;;;;;5041375;28;20855;-57
2023/01/30 12:30:33;;;;;;;;;;;;;;;;;;5037461;28;19913;-57
2023/01/30 12:32:59;;;;;;;;;;;;;;;;;;5042070;28;19924;-57
2023/01/30 12:35:25;;;;;;;;;;;;;;;;;;5036775;28;20379;-58
2023/01/30 12:37:51;;;;;;;;;;;;;;;;;;5040174;28;19975;-57
2023/01/30 12:40:17;;;;;;;;;;;;;;;;;;5041383;28;20000;-56
2023/01/30 12:42:46;;;;;;;;;;;;;;;;;;5045306;28;20396;-58
2023/01/30 12:45:12;;;;;;;;;;;;;;;;;;5037867;28;19920;-57
2023/01/30 12:47:38;;;;;;;;;;;;;;;;;;5038616;28;20176;-56
2023/01/30 12:50:05;;;;;;;;;;;;;;;;;;5045164;28;19921;-56
2023/01/30 12:52:31;;;;;;;;;;;;;;;;;;5047902;28;20004;-57
2023/01/30 12:54:57;;;;;;;;;;;;;;;;;;5047515;28;20475;-58
2023/01/30 12:57:23;;;;;;;;;;;;;;;;;;5045962;28;19913;-59
2023/01/30 12:59:49;;;;;;;;;;;;;;;;;;5041168;28;20501;-59
2023/01/30 13:02:15;;;;;;;;;;;;;;;;;;5041796;28;20009;-58
2023/01/30 13:04:41;;;;;;;;;;;;;;;;;;5044877;28;19916;-57
2023/01/30 13:07:07;;;;;;;;;;;;;;;;;;5040848;28;21786;-57
2023/01/30 13:09:33;;;;;;;;;;;;;;;;;;5042129;28;20624;-57
2023/01/30 13:11:59;;;;;;;;;;;;;;;;;;5045998;28;19968;-57
2023/01/30 13:14:25;;;;;;;;;;;;;;;;;;5038444;28;19962;-57
2023/01/30 13:16:51;;;;;;;;;;;;;;;;;;5043887;28;19975;-57
2023/01/30 13:19:17;;;;;;;;;;;;;;;;;;5041117;28;19943;-57
2023/01/30 13:21:43;;;;;;;;;;;;;;;;;;5044785;28;19913;-57
2023/01/30 13:24:09;;;;;;;;;;;;;;;;;;5040946;28;20421;-57
2023/01/30 13:26:35;;;;;;;;;;;;;;;;;;5059496;28;19952;-57
2023/01/30 13:29:02;;;;;;;;;;;;;;;;;;5045632;28;19935;-56
2023/01/30 13:31:28;;;;;;;;;;;;;;;;;;5042221;28;20000;-57
2023/01/30 13:33:54;;;;;;;;;;;;;;;;;;5043118;28;20043;-57
2023/01/30 13:36:20;;;;;;;;;;;;;;;;;;5045729;28;20485;-57
2023/01/30 13:38:46;;;;;;;;;;;;;;;;;;5044725;28;19913;-57
2023/01/30 13:41:12;;;;;;;;;;;;;;;;;;5041473;28;20047;-57
2023/01/30 13:43:38;;;;;;;;;;;;;;;;;;5048368;28;20327;-58
2023/01/30 13:46:04;;;;;;;;;;;;;;;;;;5044967;28;19955;-57
2023/01/30 13:48:30;;;;;;;;;;;;;;;;;;5043349;28;20038;-58
2023/01/30 13:50:56;;;;;;;;;;;;;;;;;;5048389;28;20444;-57
2023/01/30 13:53:22;;;;;;;;;;;;;;;;;;5043741;28;19951;-57
2023/01/30 13:55:48;;;;;;;;;;;;;;;;;;5041132;28;19952;-57
2023/01/30 13:58:14;;;;;;;;;;;;;;;;;;5049215;28;19948;-57
2023/01/30 14:00:40;;;;;;;;;;;;;;;;;;5044410;28;20381;-57
2023/01/30 14:03:05;;;;;;;;;;;;;;;;;;5052126;28;19913;-57
2023/01/30 14:05:31;;;;;;;;;;;;;;;;;;5042142;28;19971;-57
2023/01/30 14:07:57;;;;;;;;;;;;;;;;;;5051199;28;19924;-56
2023/01/30 14:10:24;;;;;;;;;;;;;;;;;;5042791;28;19913;-55
2023/01/30 14:12:50;;;;;;;;;;;;;;;;;;5044097;28;19916;-56
2023/01/30 14:15:17;;;;;;;;;;;;;;;;;;5044636;28;19952;-55
2023/01/30 14:17:43;;;;;;;;;;;;;;;;;;5045367;28;19913;-56
2023/01/30 14:20:09;;;;;;;;;;;;;;;;;;5036046;28;20419;-55
2023/01/30 14:22:35;;;;;;;;;;;;;;;;;;5045678;28;19971;-57
2023/01/30 14:25:01;;;;;;;;;;;;;;;;;;5041506;28;20318;-55
2023/01/30 14:27:30;;;;;;;;;;;;;;;;;;5046654;28;19947;-56
2023/01/30 14:29:56;;;;;;;;;;;;;;;;;;5054093;28;19916;-57
2023/01/30 14:32:22;;;;;;;;;;;;;;;;;;5038973;28;20622;-57
2023/01/30 14:34:48;;;;;;;;;;;;;;;;;;5039909;28;19960;-54
2023/01/30 14:37:14;;;;;;;;;;;;;;;;;;5040405;28;20029;-56
2023/01/30 14:39:40;;;;;;;;;;;;;;;;;;5051701;28;20016;-56
2023/01/30 14:42:06;;;;;;;;;;;;;;;;;;5039571;28;20869;-55
2023/01/30 14:44:32;;;;;;;;;;;;;;;;;;5050725;28;19913;-56
2023/01/30 14:46:58;;;;;;;;;;;;;;;;;;5052860;28;19936;-55
2023/01/30 14:49:24;;;;;;;;;;;;;;;;;;5049051;28;19975;-56
2023/01/30 14:51:51;;;;;;;;;;;;;;;;;;5044163;28;19913;-56
2023/01/30 14:54:17;;;;;;;;;;;;;;;;;;5045841;28;19912;-56
2023/01/30 14:56:43;;;;;;;;;;;;;;;;;;5045202;28;20402;-56
2023/01/30 14:59:09;;;;;;;;;;;;;;;;;;5043987;28;20011;-55
2023/01/30 15:01:35;;;;;;;;;;;;;;;;;;5039740;28;20018;-56
2023/01/30 15:04:01;;;;;;;;;;;;;;;;;;5046045;28;20026;-55
2023/01/30 15:06:27;;;;;;;;;;;;;;;;;;5047166;28;20355;-55
2023/01/30 15:08:53;;;;;;;;;;;;;;;;;;5040346;28;19921;-55
2023/01/30 15:11:19;;;;;;;;;;;;;;;;;;5038266;28;19962;-55
2023/01/30 15:13:45;;;;;;;;;;;;;;;;;;5043875;28;20415;-56
2023/01/30 15:16:11;;;;;;;;;;;;;;;;;;5045421;28;19921;-56
2023/01/30 15:18:37;;;;;;;;;;;;;;;;;;5042596;28;20288;-55
2023/01/30 15:21:03;;;;;;;;;;;;;;;;;;5033684;28;20019;-55
2023/01/30 15:23:29;;;;;;;;;;;;;;;;;;5045208;28;19917;-61
2023/01/30 15:25:54;;;;;;;;;;;;;;;;;;5041264;28;19930;-55
2023/01/30 15:28:20;;;;;;;;;;;;;;;;;;5044657;28;19970;-54
2023/01/30 15:30:46;;;;;;;;;;;;;;;;;;5050516;28;19913;-56
2023/01/30 15:33:12;;;;;;;;;;;;;;;;;;5051453;28;20017;-54
2023/01/30 15:35:38;;;;;;;;;;;;;;;;;;5041083;28;19967;-55
2023/01/30 15:38:04;;;;;;;;;;;;;;;;;;5049833;28;19913;-54
2023/01/30 15:40:30;;;;;;;;;;;;;;;;;;5046927;28;19958;-55
2023/01/30 15:42:56;;;;;;;;;;;;;;;;;;5051214;28;20379;-55
2023/01/30 15:45:22;;;;;;;;;;;;;;;;;;5046337;28;20005;-55
2023/01/30 15:47:48;;;;;;;;;;;;;;;;;;5059429;28;20019;-55
2023/01/30 15:50:13;;;;;;;;;;;;;;;;;;5054383;28;20362;-55
2023/01/30 15:52:43;;;;;;;;;;;;;;;;;;5044777;28;19975;-55
2023/01/30 15:55:09;;;;;;;;;;;;;;;;;;5039032;28;20387;-54
2023/01/30 15:57:35;;;;;;;;;;;;;;;;;;5043297;28;19995;-54
2023/01/30 16:00:01;;;;;;;;;;;;;;;;;;5050891;28;19920;-53
2023/01/30 16:02:27;;;;;;;;;;;;;;;;;;5046731;28;19946;-57
2023/01/30 16:04:53;;;;;;;;;;;;;;;;;;5049032;28;19913;-55
2023/01/30 16:07:19;;;;;;;;;;;;;;;;;;5054812;28;19948;-53
2023/01/30 16:09:45;;;;;;;;;;;;;;;;;;5046770;28;20398;-54
2023/01/30 16:12:10;;;;;;;;;;;;;;;;;;5059380;28;19923;-55
2023/01/30 16:14:36;;;;;;;;;;;;;;;;;;5054685;28;19988;-55
2023/01/30 16:17:02;;;;;;;;;;;;;;;;;;5044314;28;19913;-55
2023/01/30 16:19:28;;;;;;;;;;;;;;;;;;5049667;28;20408;-54
2023/01/30 16:21:54;;;;;;;;;;;;;;;;;;5042788;28;19963;-54
2023/01/30 16:24:20;;;;;;;;;;;;;;;;;;5040350;28;20012;-55
2023/01/30 16:26:46;;;;;;;;;;;;;;;;;;5045132;28;19913;-55
2023/01/30 16:29:12;;;;;;;;;;;;;;;;;;5048445;28;19917;-55
2023/01/30 16:31:38;;;;;;;;;;;;;;;;;;5051131;28;19967;-55
2023/01/30 16:34:04;;;;;;;;;;;;;;;;;;5048980;28;19952;-54
2023/01/30 16:36:31;;;;;;;;;;;;;;;;;;5049999;28;20442;-55
2023/01/30 16:38:57;;;;;;;;;;;;;;;;;;5049629;28;20364;-55
2023/01/30 16:41:23;;;;;;;;;;;;;;;;;;5046352;28;19919;-55
2023/01/30 16:43:49;;;;;;;;;;;;;;;;;;5048748;28;19913;-55